Time;durP1;ratioP1;P1;durP2;ratioP2;P2;SDS_P1;SDS_P2;PMS_P1;PMS_P2;Temp;Humidity;BMP_temperature;BMP_pressure;BME280_temperature;BME280_humidity;BME280_pressure;Samples;Min_cycle;Max_cycle;Signal;HPM_P1;HPM_P2
2021/11/02 00:03:47;;;;;;;12.45;6.80;;;;;;;5.90;66.79;98437.16;10387803;28;20172;-68
2021/11/02 00:08:49;;;;;;;11.70;6.45;;;;;;;5.96;66.49;98436.78;10388427;28;20045;-68
2021/11/02 00:13:54;;;;;;;9.30;5.45;;;;;;;5.91;66.35;98439.66;10389099;28;20052;-67
2021/11/02 00:19:04;;;;;;;10.18;5.15;;;;;;;5.91;66.74;98426.69;10369423;28;20054;-68
2021/11/02 00:24:12;;;;;;;9.68;5.20;;;;;;;5.98;66.34;98419.34;10387941;28;20037;-68
2021/11/02 00:29:14;;;;;;;9.02;4.43;;;;;;;5.94;66.26;98416.09;10386643;28;20053;-68
2021/11/02 00:34:16;;;;;;;12.57;4.63;;;;;;;5.97;66.51;98425.44;10389276;28;20053;-67
2021/11/02 00:39:17;;;;;;;9.85;4.13;;;;;;;6.02;66.65;98415.63;10384632;28;20596;-67
2021/11/02 00:44:21;;;;;;;11.55;4.70;;;;;;;6.13;66.31;98406.19;10388323;28;20050;-68
2021/11/02 00:49:25;;;;;;;10.98;4.78;;;;;;;6.20;66.04;98417.00;10385692;28;20057;-68
2021/11/02 00:54:27;;;;;;;9.13;4.40;;;;;;;6.10;65.56;98411.56;10382386;28;20080;-68
2021/11/02 00:59:29;;;;;;;7.65;3.25;;;;;;;5.94;66.00;98417.88;10387519;28;20496;-68
2021/11/02 01:04:30;;;;;;;9.00;3.35;;;;;;;5.87;66.12;98412.25;10383358;28;20485;-67
2021/11/02 01:09:32;;;;;;;9.20;3.90;;;;;;;5.90;65.98;98408.63;10386065;28;20064;-67
2021/11/02 01:14:34;;;;;;;7.65;3.30;;;;;;;5.99;66.04;98415.81;10386422;28;20128;-68
2021/11/02 01:19:36;;;;;;;11.93;3.72;;;;;;;6.10;66.20;98415.94;10384610;28;20409;-68
2021/11/02 01:24:39;;;;;;;8.13;3.20;;;;;;;6.16;65.94;98415.53;10385150;28;20140;-67
2021/11/02 01:29:40;;;;;;;9.75;3.40;;;;;;;6.23;65.72;98409.84;10383924;28;20045;-68
2021/11/02 01:34:42;;;;;;;9.57;3.73;;;;;;;6.23;65.81;98412.44;10386842;28;20553;-68
2021/11/02 01:39:44;;;;;;;10.57;3.22;;;;;;;6.35;65.60;98416.00;10383583;28;20038;-68
2021/11/02 01:44:46;;;;;;;8.15;3.33;;;;;;;6.34;65.54;98414.34;10386390;28;20680;-67
2021/11/02 01:49:48;;;;;;;8.73;3.53;;;;;;;6.23;65.63;98407.25;10386434;28;20433;-68
2021/11/02 01:54:50;;;;;;;10.43;3.42;;;;;;;6.31;65.61;98410.19;10384401;28;20052;-68
2021/11/02 01:59:53;;;;;;;8.45;3.20;;;;;;;6.32;65.75;98417.06;10386631;28;20045;-68
2021/11/02 02:05:11;;;;;;;13.70;3.95;;;;;;;6.36;65.69;98412.47;10385266;28;20342;-68
2021/11/02 02:10:26;;;;;;;13.60;3.97;;;;;;;6.38;65.79;98407.19;10383768;28;20091;-67
2021/11/02 02:15:50;;;;;;;9.77;3.80;;;;;;;6.32;65.84;98404.06;10383047;28;20207;-68
2021/11/02 02:21:25;;;;;;;8.55;3.70;;;;;;;6.22;66.06;98407.34;10385633;28;20449;-67
2021/11/02 02:26:40;;;;;;;9.32;3.30;;;;;;;6.34;66.30;98404.81;10384594;28;20049;-67
2021/11/02 02:31:46;;;;;;;6.82;3.58;;;;;;;6.51;65.96;98410.63;10367927;28;20052;-67
2021/11/02 02:36:51;;;;;;;9.48;3.45;;;;;;;6.61;66.12;98398.69;10383349;28;20085;-67
2021/11/02 02:41:53;;;;;;;7.00;4.00;;;;;;;6.69;65.66;98402.44;10384782;28;20056;-68
2021/11/02 02:46:56;;;;;;;16.63;4.97;;;;;;;6.75;65.56;98395.97;10384411;28;20142;-67
2021/11/02 02:52:00;;;;;;;8.60;4.05;;;;;;;6.72;65.40;98399.59;10382965;28;20049;-67
2021/11/02 02:57:02;;;;;;;8.75;4.07;;;;;;;6.79;65.70;98410.41;10384656;28;20053;-67
2021/11/02 03:02:05;;;;;;;11.93;4.20;;;;;;;6.79;65.58;98410.41;10386307;28;20273;-68
2021/11/02 03:07:07;;;;;;;10.07;3.95;;;;;;;6.81;65.68;98409.38;10392366;28;20058;-68
2021/11/02 03:12:11;;;;;;;6.00;3.50;;;;;;;6.82;65.63;98407.59;10391243;28;20071;-68
2021/11/02 03:17:19;;;;;;;7.25;3.35;;;;;;;6.80;65.65;98402.50;10391492;28;20491;-67
2021/11/02 03:49:21;;;;;;;8.23;4.10;;;;;;;6.93;66.28;98385.16;10399208;28;19924;-67
2021/11/02 03:55:08;;;;;;;11.10;4.65;;;;;;;7.03;66.39;98387.94;10398416;28;20149;-68
2021/11/02 04:27:07;;;;;;;;;;;;;;;6.54;68.23;98367.09;10391285;28;20088;-67
2021/11/02 05:20:31;;;;;;;4.63;2.30;;;;;;;5.89;68.16;98379.25;10389185;28;20049;-68
2021/11/02 06:07:48;;;;;;;9.13;4.50;;;;;;;4.85;68.99;98385.09;10387350;28;20053;-67
2021/11/02 06:29:13;;;;;;;7.10;3.50;;;;;;;4.87;69.18;98386.66;10385764;28;20061;-68
2021/11/02 06:34:36;;;;;;;10.15;4.40;;;;;;;4.92;68.62;98396.75;10386108;28;20124;-68
2021/11/02 08:48:59;;;;;;;5.45;2.60;;;;;;;9.78;59.63;98409.56;10388950;28;20071;-67
2021/11/02 08:54:02;;;;;;;7.63;2.72;;;;;;;9.63;60.08;98411.59;10387876;28;20056;-67
2021/11/02 08:59:03;;;;;;;3.90;2.10;;;;;;;9.52;59.93;98403.78;10388301;28;20053;-67
2021/11/02 09:04:20;;;;;;;5.10;2.47;;;;;;;9.64;59.91;98405.44;10388582;28;20137;-66
2021/11/02 09:09:22;;;;;;;4.70;2.47;;;;;;;9.74;60.04;98402.09;10381990;28;20460;-66
2021/11/02 09:14:30;;;;;;;5.97;2.13;;;;;;;9.82;59.41;98395.31;10386584;28;20062;-67
2021/11/02 09:19:35;;;;;;;6.55;2.90;;;;;;;9.90;59.58;98389.47;10385538;28;20402;-66
2021/11/02 09:24:42;;;;;;;5.55;2.30;;;;;;;10.12;59.00;98381.53;10386090;28;20508;-67
2021/11/02 09:29:46;;;;;;;5.28;2.30;;;;;;;10.30;57.83;98390.47;10387610;28;20047;-66
2021/11/02 09:34:48;;;;;;;4.10;1.60;;;;;;;10.31;57.63;98397.34;10386614;28;20127;-66
2021/11/02 09:39:51;;;;;;;4.03;1.58;;;;;;;10.35;57.51;98393.53;10386169;28;20056;-66
2021/11/02 09:45:06;;;;;;;8.18;2.00;;;;;;;10.31;56.99;98394.75;10387358;28;20060;-66
2021/11/02 09:50:43;;;;;;;5.05;2.30;;;;;;;10.05;57.62;98393.47;10385171;28;20052;-67
2021/11/02 09:55:53;;;;;;;6.70;2.78;;;;;;;10.15;57.88;98389.13;10385597;28;20049;-66
2021/11/02 10:01:01;;;;;;;8.20;2.78;;;;;;;10.42;57.83;98384.22;10383994;28;20045;-66
2021/11/02 10:06:09;;;;;;;3.92;1.95;;;;;;;10.90;56.14;98382.72;10383281;28;20485;-66
2021/11/02 10:11:38;;;;;;;5.30;2.05;;;;;;;11.35;55.35;98374.50;10386246;28;20148;-66
2021/11/02 10:17:04;;;;;;;6.45;2.00;;;;;;;11.44;54.40;98368.47;10382310;28;20557;-67
2021/11/02 10:22:11;;;;;;;5.38;2.10;;;;;;;11.45;55.18;98370.09;10384453;28;20111;-66
2021/11/02 10:27:48;;;;;;;10.10;2.40;;;;;;;11.67;54.21;98370.69;10385441;28;20136;-66
2021/11/02 10:32:53;;;;;;;5.38;1.77;;;;;;;11.88;54.46;98370.56;10369671;28;20883;-66
2021/11/02 10:38:02;;;;;;;4.78;1.70;;;;;;;11.84;54.01;98361.34;10383368;28;20049;-66
2021/11/02 10:43:22;;;;;;;4.47;2.30;;;;;;;11.80;54.23;98368.66;10384647;28;20140;-75
2021/11/02 10:48:30;;;;;;;5.32;3.00;;;;;;;11.73;55.44;98366.69;10384679;28;20056;-75
2021/11/02 10:53:46;;;;;;;7.10;3.08;;;;;;;11.54;55.64;98370.09;10385832;28;20058;-75
2021/11/02 10:59:01;;;;;;;8.85;3.67;;;;;;;11.51;55.93;98364.31;10384896;28;20053;-76
2021/11/02 11:04:07;;;;;;;6.10;3.10;;;;;;;11.41;56.05;98363.47;10383859;28;20067;-75
2021/11/02 11:09:13;;;;;;;7.65;3.80;;;;;;;11.37;56.35;98367.31;10387348;28;20060;-75
2021/11/02 11:14:15;;;;;;;6.60;3.10;;;;;;;11.18;56.77;98370.72;10384373;28;20133;-75
2021/11/02 11:19:27;;;;;;;6.18;3.42;;;;;;;10.97;57.82;98378.59;10383517;28;20787;-75
2021/11/02 11:24:39;;;;;;;6.47;3.38;;;;;;;10.63;58.99;98377.19;10383857;28;20041;-74
2021/11/02 11:29:46;;;;;;;6.63;4.03;;;;;;;10.52;59.77;98375.47;10383863;28;20050;-77
2021/11/02 11:34:51;;;;;;;5.97;3.70;;;;;;;10.58;60.27;98374.16;10386312;28;20069;-76
2021/11/02 11:40:00;;;;;;;6.95;3.72;;;;;;;10.56;60.60;98373.47;10389509;28;20216;-76
2021/11/02 11:45:11;;;;;;;6.28;4.00;;;;;;;10.52;60.95;98357.19;10384818;28;20049;-77
2021/11/02 11:50:17;;;;;;;7.22;3.80;;;;;;;10.61;60.59;98365.19;10392862;28;20057;-78
2021/11/02 11:55:34;;;;;;;6.05;3.83;;;;;;;10.53;61.42;98355.41;10392144;28;20085;-77
2021/11/02 12:00:42;;;;;;;5.40;3.40;;;;;;;10.59;61.06;98354.88;10392268;28;20143;-76
2021/11/02 12:05:48;;;;;;;7.95;4.18;;;;;;;10.78;61.40;98354.16;10390809;28;20131;-74
2021/11/02 12:10:52;;;;;;;6.53;3.75;;;;;;;10.64;62.28;98346.66;10392062;28;20050;-76
2021/11/02 12:21:18;;;;;;;4.75;2.60;;;;;;;10.86;60.47;98336.84;10390424;28;20069;-78
2021/11/02 12:26:20;;;;;;;4.25;2.70;;;;;;;10.94;60.54;98339.63;10390772;28;20061;-77
2021/11/02 12:31:25;;;;;;;5.88;2.72;;;;;;;10.81;61.38;98339.03;10393612;28;20148;-78
2021/11/02 12:36:26;;;;;;;5.57;2.70;;;;;;;10.88;61.49;98336.72;10392423;28;20120;-77
2021/11/02 12:41:29;;;;;;;4.75;2.40;;;;;;;10.91;60.72;98339.88;10393200;28;20053;-76
2021/11/02 12:46:32;;;;;;;4.82;2.70;;;;;;;10.96;61.44;98337.72;10389972;28;20045;-76
2021/11/02 12:51:39;;;;;;;3.55;2.25;;;;;;;10.92;60.79;98333.72;10390038;28;20355;-76
2021/11/02 12:56:50;;;;;;;5.10;2.72;;;;;;;10.80;61.05;98337.38;10391230;28;20053;-77
2021/11/02 13:01:52;;;;;;;5.28;2.40;;;;;;;10.93;61.70;98332.72;10397933;28;20060;-77
2021/11/02 13:06:54;;;;;;;4.43;2.63;;;;;;;10.94;61.78;98338.81;10389659;28;20739;-75
2021/11/02 13:12:02;;;;;;;6.55;3.08;;;;;;;10.85;62.69;98335.19;10392007;28;20138;-76
2021/11/02 13:17:06;;;;;;;4.18;2.97;;;;;;;10.70;62.36;98336.50;10386908;28;20390;-75
2021/11/02 13:22:20;;;;;;;4.60;3.00;;;;;;;10.60;61.91;98330.41;10389030;28;20481;-75
2021/11/02 13:27:43;;;;;;;7.93;3.78;;;;;;;10.81;62.46;98332.94;10390423;28;20140;-75
2021/11/02 13:33:01;;;;;;;3.92;2.50;;;;;;;10.92;62.49;98328.47;10394437;28;20057;-77
2021/11/02 13:38:28;;;;;;;4.55;2.45;;;;;;;10.94;62.10;98339.63;10397213;28;20064;-77
2021/11/02 13:43:41;;;;;;;4.45;2.60;;;;;;;10.89;62.27;98339.19;10389524;28;20144;-76
2021/11/02 13:48:43;;;;;;;5.85;2.88;;;;;;;10.83;62.72;98341.50;10386237;28;20728;-77
2021/11/02 13:53:45;;;;;;;6.82;4.85;;;;;;;10.65;63.56;98343.91;10387001;28;20049;-77
2021/11/02 13:58:47;;;;;;;2.47;1.60;;;;;;;10.15;63.05;98355.16;10390889;28;20149;-76
2021/11/02 14:04:26;;;;;;;3.10;1.77;;;;;;;9.79;63.44;98353.78;10388758;28;20494;-76
2021/11/02 14:09:31;;;;;;;2.33;1.50;;;;;;;9.65;64.05;98351.44;10386851;28;20417;-76
2021/11/02 14:14:34;;;;;;;3.53;1.88;;;;;;;9.50;64.39;98357.91;10386741;28;20501;-74
2021/11/02 14:19:38;;;;;;;3.78;1.80;;;;;;;9.45;64.78;98350.44;10386206;28;20172;-73
2021/11/02 14:24:41;;;;;;;5.88;2.00;;;;;;;9.37;64.99;98358.03;10384883;28;20053;-78
2021/11/02 14:29:48;;;;;;;4.78;2.75;;;;;;;9.30;65.41;98362.06;10386515;28;20160;-74
2021/11/02 14:34:50;;;;;;;15.10;7.30;;;;;;;9.26;65.63;98359.84;10385806;28;20053;-74
2021/11/02 14:40:05;;;;;;;10.10;6.00;;;;;;;9.19;65.89;98364.72;10385690;28;20483;-74
2021/11/02 14:45:09;;;;;;;7.57;4.70;;;;;;;9.12;65.72;98373.97;10382429;28;20117;-74
2021/11/02 14:50:34;;;;;;;3.20;1.85;;;;;;;9.00;66.14;98371.47;10382852;28;20540;-72
2021/11/02 14:55:56;;;;;;;3.80;2.22;;;;;;;8.87;66.61;98369.03;10383112;28;20571;-74
2021/11/02 15:00:58;;;;;;;4.88;2.83;;;;;;;9.01;66.36;98370.53;10385250;28;20053;-73
2021/11/02 15:06:12;;;;;;;6.25;2.20;;;;;;;9.05;66.50;98367.59;10384161;28;20045;-73
2021/11/02 15:11:18;;;;;;;3.83;2.40;;;;;;;9.21;66.03;98369.81;10384268;28;20160;-73
2021/11/02 15:16:22;;;;;;;3.60;2.50;;;;;;;9.33;65.76;98367.06;10383835;28;20459;-73
2021/11/02 15:21:29;;;;;;;5.28;2.53;;;;;;;9.28;65.73;98368.38;10385069;28;20968;-73
2021/11/02 15:26:40;;;;;;;3.58;2.33;;;;;;;9.31;65.62;98368.13;10391823;28;20390;-73
2021/11/02 15:32:02;;;;;;;3.15;1.77;;;;;;;9.37;65.48;98373.69;10392406;28;20502;-74
2021/11/02 15:37:06;;;;;;;6.00;2.35;;;;;;;9.31;65.64;98363.75;10391123;28;20945;-73
2021/11/02 15:42:36;;;;;;;6.40;2.30;;;;;;;9.17;65.92;98365.78;10391694;28;20460;-73
2021/11/02 15:48:10;;;;;;;5.03;2.58;;;;;;;9.15;66.13;98371.13;10391562;28;20052;-73
2021/11/02 15:53:13;;;;;;;4.40;2.17;;;;;;;9.17;66.01;98377.06;10392086;28;20049;-73
2021/11/02 15:58:17;;;;;;;5.07;2.17;;;;;;;9.07;66.09;98376.13;10390350;28;20267;-73
2021/11/02 16:03:19;;;;;;;3.03;1.88;;;;;;;8.90;66.08;98379.19;10386963;28;20055;-73
2021/11/02 16:08:23;;;;;;;5.05;2.10;;;;;;;8.78;66.28;98377.53;10381473;28;20061;-73
2021/11/02 16:13:26;;;;;;;4.38;2.10;;;;;;;8.74;66.34;98378.72;10378692;28;20498;-73
2021/11/02 16:18:32;;;;;;;6.43;2.30;;;;;;;8.77;66.52;98381.91;10383523;28;20513;-72
2021/11/02 16:24:08;;;;;;;5.50;3.42;;;;;;;8.74;66.59;98384.78;10388983;28;20091;-73
2021/11/02 16:29:16;;;;;;;7.70;5.43;;;;;;;8.75;66.97;98385.59;10388823;28;20050;-73
2021/11/02 16:34:24;;;;;;;7.35;3.80;;;;;;;8.73;66.99;98392.69;10387895;28;20072;-73
2021/11/02 16:39:26;;;;;;;17.98;10.13;;;;;;;8.70;66.74;98395.53;10386208;28;20053;-72
2021/11/02 16:44:37;;;;;;;11.23;5.63;;;;;;;8.50;67.03;98396.22;10387153;28;20057;-74
2021/11/02 16:49:40;;;;;;;16.50;7.35;;;;;;;8.23;67.60;98390.47;10388026;28;20148;-73
2021/11/02 16:54:44;;;;;;;10.35;5.28;;;;;;;8.17;67.77;98394.38;10387910;28;20421;-73
2021/11/02 16:59:50;;;;;;;7.20;4.20;;;;;;;8.24;68.04;98397.34;10388074;28;20053;-73
2021/11/02 17:05:15;;;;;;;7.22;3.55;;;;;;;8.36;67.79;98401.66;10387043;28;20720;-73
2021/11/02 17:10:22;;;;;;;10.32;5.03;;;;;;;8.48;67.60;98400.72;10387118;28;20049;-73
2021/11/02 17:15:31;;;;;;;11.40;7.40;;;;;;;8.47;67.79;98401.66;10385275;28;20045;-74
2021/11/02 17:20:34;;;;;;;14.05;9.85;;;;;;;8.51;67.30;98406.53;10387045;28;20509;-65
2021/11/02 17:25:37;;;;;;;13.13;7.80;;;;;;;8.30;68.18;98404.72;10386120;28;20052;-63
2021/11/02 17:30:38;;;;;;;12.05;7.57;;;;;;;8.22;68.13;98407.06;10386001;28;20049;-63
2021/11/02 17:35:42;;;;;;;12.82;6.90;;;;;;;8.19;68.14;98417.69;10385714;28;20498;-63
2021/11/02 17:40:44;;;;;;;11.80;5.97;;;;;;;8.25;68.07;98427.66;10386796;28;20064;-65
2021/11/02 17:45:46;;;;;;;16.70;10.23;;;;;;;8.25;67.76;98427.66;10385038;28;20056;-64
2021/11/02 17:50:48;;;;;;;16.90;10.75;;;;;;;8.22;67.77;98422.69;10384347;28;20139;-64
2021/11/02 17:55:49;;;;;;;126.93;13.40;;;;;;;8.11;67.82;98435.66;10383786;28;20517;-64
2021/11/02 18:00:59;;;;;;;19.83;11.15;;;;;;;8.08;67.72;98451.47;10386562;28;20045;-64
2021/11/02 18:06:08;;;;;;;9.70;4.90;;;;;;;8.03;67.65;98451.81;10384343;28;20432;-64
2021/11/02 18:11:12;;;;;;;8.38;3.92;;;;;;;7.92;67.89;98462.16;10384303;28;20051;-65
2021/11/02 18:16:14;;;;;;;7.47;3.70;;;;;;;7.85;68.17;98466.97;10383019;28;20061;-64
2021/11/02 18:21:18;;;;;;;7.13;4.00;;;;;;;7.82;68.21;98466.34;10383273;28;20053;-64
2021/11/02 18:26:24;;;;;;;47.72;7.97;;;;;;;7.85;68.07;98472.16;10380766;28;20485;-63
2021/11/02 18:31:26;;;;;;;12.40;6.00;;;;;;;7.64;68.37;98470.28;10374785;28;20240;-64
2021/11/02 18:36:28;;;;;;;8.85;5.53;;;;;;;7.51;68.95;98472.09;10382091;28;20128;-64
2021/11/02 18:41:30;;;;;;;10.70;5.93;;;;;;;7.64;68.68;98476.31;10380111;28;20057;-64
2021/11/02 18:46:32;;;;;;;8.20;5.15;;;;;;;7.64;68.81;98485.88;10380958;28;20049;-64
2021/11/02 18:51:34;;;;;;;4.28;3.13;;;;;;;7.76;68.80;98482.41;10379130;28;20472;-64
2021/11/02 18:56:36;;;;;;;7.32;4.13;;;;;;;7.75;68.73;98481.56;10376741;28;20052;-64
2021/11/02 19:01:41;;;;;;;4.65;3.22;;;;;;;7.73;68.73;98486.06;10371780;28;20320;-64
2021/11/02 19:06:43;;;;;;;4.15;2.42;;;;;;;7.87;68.49;98483.31;10379645;28;20124;-64
2021/11/02 19:11:45;;;;;;;3.85;2.38;;;;;;;8.10;68.19;98486.03;10378849;28;20403;-64
2021/11/02 19:16:47;;;;;;;4.80;2.50;;;;;;;8.02;67.72;98483.97;10378864;28;20053;-65
2021/11/02 19:21:48;;;;;;;5.90;3.25;;;;;;;7.89;68.18;98484.06;10383144;28;20049;-64
2021/11/02 19:26:50;;;;;;;6.65;3.30;;;;;;;7.93;68.21;98484.66;10382827;28;20489;-64
2021/11/02 19:31:52;;;;;;;20.88;13.35;;;;;;;7.84;68.25;98483.53;10382820;28;20128;-64
2021/11/02 19:36:57;;;;;;;10.15;6.10;;;;;;;7.88;68.11;98484.97;10382006;28;20457;-64
2021/11/02 19:41:58;;;;;;;6.47;4.25;;;;;;;7.85;68.09;98486.97;10383464;28;20053;-64
2021/11/02 19:47:04;;;;;;;14.95;13.30;;;;;;;7.74;68.34;98479.09;10382235;28;20160;-64
2021/11/02 19:52:06;;;;;;;10.55;8.02;;;;;;;7.79;68.15;98480.41;10382707;28;20088;-64
2021/11/02 19:57:08;;;;;;;7.60;6.70;;;;;;;7.82;68.49;98488.00;10382224;28;20041;-63
2021/11/02 20:02:09;;;;;;;5.90;5.10;;;;;;;7.86;68.26;98489.47;10383176;28;20054;-64
2021/11/02 20:07:34;;;;;;;6.63;3.90;;;;;;;7.68;68.28;98501.19;10383276;28;20072;-64
2021/11/02 20:12:47;;;;;;;6.28;5.22;;;;;;;7.50;68.54;98493.81;10391076;28;20049;-64
2021/11/02 20:17:50;;;;;;;6.55;3.35;;;;;;;7.42;68.51;98491.78;10388429;28;20502;-64
2021/11/02 20:22:53;;;;;;;108.93;10.60;;;;;;;7.26;68.74;98498.97;10389627;28;20053;-64
2021/11/02 20:27:58;;;;;;;1116.80;34.70;;;;;;;6.99;68.53;98512.09;10389330;28;20140;-65
2021/11/02 20:33:01;;;;;;;870.35;23.23;;;;;;;6.62;69.35;98533.66;10388226;28;20535;-63
2021/11/02 20:38:04;;;;;;;23.85;5.68;;;;;;;6.52;69.86;98542.13;10388251;28;20067;-64
2021/11/02 20:43:06;;;;;;;6.85;4.20;;;;;;;6.77;69.77;98545.63;10389307;28;20041;-64
2021/11/02 20:48:15;;;;;;;6.13;4.40;;;;;;;7.01;69.32;98535.38;10389965;28;20081;-64
2021/11/02 20:53:17;;;;;;;7.35;5.32;;;;;;;7.12;69.04;98548.47;10387699;28;20505;-65
2021/11/02 20:58:29;;;;;;;14.13;8.75;;;;;;;7.17;68.75;98556.78;10387241;28;20049;-64
2021/11/02 21:03:32;;;;;;;9.85;6.40;;;;;;;7.16;68.66;98560.34;10386314;28;20049;-63
2021/11/02 21:08:37;;;;;;;6.38;4.55;;;;;;;7.15;68.56;98563.84;10385754;28;20133;-64
2021/11/02 21:13:41;;;;;;;47.38;7.68;;;;;;;7.10;68.49;98565.94;10387684;28;20046;-64
2021/11/02 21:18:54;;;;;;;51.65;5.53;;;;;;;6.72;69.41;98558.09;10385669;28;20065;-64
2021/11/02 21:24:16;;;;;;;8.35;5.57;;;;;;;6.64;69.75;98560.34;10386046;28;20045;-64
2021/11/02 21:29:20;;;;;;;9.25;6.40;;;;;;;6.72;69.30;98545.09;10386361;28;20049;-64
2021/11/02 21:34:26;;;;;;;9.90;6.60;;;;;;;6.75;69.36;98547.50;10386733;28;20053;-64
2021/11/02 21:39:28;;;;;;;15.35;9.73;;;;;;;6.59;69.81;98543.41;10387099;28;20147;-64
2021/11/02 21:44:32;;;;;;;12.10;9.20;;;;;;;6.46;70.29;98539.94;10385269;28;20139;-65
2021/11/02 21:50:03;;;;;;;31.63;15.55;;;;;;;6.46;70.48;98548.56;10385851;28;20865;-64
2021/11/02 21:55:07;;;;;;;22.80;12.18;;;;;;;6.44;70.12;98550.44;10385564;28;20080;-64
2021/11/02 22:00:10;;;;;;;18.25;9.80;;;;;;;6.29;70.23;98547.06;10386614;28;20053;-64
2021/11/02 22:05:12;;;;;;;20.10;12.55;;;;;;;6.12;70.29;98552.44;10385960;28;20163;-64
2021/11/02 22:10:13;;;;;;;17.08;10.00;;;;;;;5.97;70.50;98530.06;10384897;28;20072;-63
2021/11/02 22:15:20;;;;;;;13.02;8.70;;;;;;;5.97;70.51;98524.06;10385796;28;20064;-64
2021/11/02 22:20:24;;;;;;;100.72;15.02;;;;;;;5.93;70.19;98527.78;10383923;28;20536;-64
2021/11/02 22:25:27;;;;;;;20.88;11.18;;;;;;;5.94;70.16;98525.06;10384219;28;20505;-64
2021/11/02 22:30:37;;;;;;;26.58;9.77;;;;;;;5.83;70.46;98516.31;10384764;28;20049;-63
2021/11/02 22:35:39;;;;;;;94.07;14.70;;;;;;;5.97;70.42;98513.66;10383908;28;20207;-63
2021/11/02 22:40:42;;;;;;;615.70;25.67;;;;;;;6.12;70.20;98515.31;10384136;28;20057;-63
2021/11/02 22:45:45;;;;;;;1038.22;40.20;;;;;;;6.14;69.69;98519.44;10384411;28;20068;-63
2021/11/02 22:50:47;;;;;;;692.25;31.25;;;;;;;6.08;69.90;98503.44;10383795;28;20045;-64
2021/11/02 22:55:49;;;;;;;795.15;37.28;;;;;;;6.22;69.68;98490.41;10383412;28;20083;-63
2021/11/02 23:00:53;;;;;;;529.75;21.88;;;;;;;6.18;69.79;98499.34;10379747;28;20053;-64
2021/11/02 23:05:55;;;;;;;63.17;10.85;;;;;;;6.22;69.87;98486.06;10379572;28;20063;-64
2021/11/02 23:10:58;;;;;;;33.03;11.00;;;;;;;6.17;69.72;98487.28;10382372;28;20136;-63
2021/11/02 23:15:59;;;;;;;606.33;32.47;;;;;;;6.10;69.38;98473.03;10383239;28;20759;-63
2021/11/02 23:21:01;;;;;;;467.02;22.85;;;;;;;5.88;69.51;98473.56;10380133;28;20049;-63
2021/11/02 23:26:11;;;;;;;219.30;13.52;;;;;;;5.89;70.03;98483.03;10380027;28;20406;-63
2021/11/02 23:31:14;;;;;;;111.90;11.70;;;;;;;5.98;69.81;98504.97;10377497;28;20444;-64
2021/11/02 23:36:18;;;;;;;112.88;10.80;;;;;;;6.10;69.72;98530.94;10381994;28;20068;-63
2021/11/02 23:41:22;;;;;;;223.60;15.18;;;;;;;6.21;69.51;98540.66;10380799;28;20053;-64
2021/11/02 23:46:23;;;;;;;282.65;18.15;;;;;;;6.23;69.33;98543.97;10389158;28;20049;-63
2021/11/02 23:51:26;;;;;;;117.03;12.30;;;;;;;6.19;69.31;98538.16;10386424;28;20052;-63
2021/11/02 23:56:27;;;;;;;379.00;14.13;;;;;;;6.07;69.36;98536.34;10388439;28;20129;-64
